sensor_id;sensor_type;location;lat;lon;timestamp;P1;durP1;ratioP1;P2;durP2;ratioP2
18947;SDS011;9607;51.600;7.558;2022-10-30T00:01:28;4.28;;;3.88;;
18947;SDS011;9607;51.600;7.558;2022-10-30T00:03:57;3.33;;;3.03;;
18947;SDS011;9607;51.600;7.558;2022-10-30T00:06:24;4.68;;;3.22;;
18947;SDS011;9607;51.600;7.558;2022-10-30T00:08:51;3.33;;;3.00;;
18947;SDS011;9607;51.600;7.558;2022-10-30T00:11:19;4.45;;;3.78;;
18947;SDS011;9607;51.600;7.558;2022-10-30T00:13:48;4.13;;;3.60;;
18947;SDS011;9607;51.600;7.558;2022-10-30T00:16:15;4.00;;;3.10;;
18947;SDS011;9607;51.600;7.558;2022-10-30T00:18:42;3.15;;;2.85;;
18947;SDS011;9607;51.600;7.558;2022-10-30T00:21:09;3.50;;;3.20;;
18947;SDS011;9607;51.600;7.558;2022-10-30T00:23:37;4.45;;;3.67;;
18947;SDS011;9607;51.600;7.558;2022-10-30T00:26:05;3.90;;;3.50;;
18947;SDS011;9607;51.600;7.558;2022-10-30T00:28:34;3.92;;;3.38;;
18947;SDS011;9607;51.600;7.558;2022-10-30T00:31:02;3.85;;;3.33;;
18947;SDS011;9607;51.600;7.558;2022-10-30T00:33:30;4.57;;;3.38;;
18947;SDS011;9607;51.600;7.558;2022-10-30T00:35:57;4.72;;;3.35;;
18947;SDS011;9607;51.600;7.558;2022-10-30T00:38:24;3.70;;;3.35;;
18947;SDS011;9607;51.600;7.558;2022-10-30T00:40:51;5.50;;;3.72;;
18947;SDS011;9607;51.600;7.558;2022-10-30T00:43:28;3.50;;;2.95;;
18947;SDS011;9607;51.600;7.558;2022-10-30T00:45:59;4.05;;;3.65;;
18947;SDS011;9607;51.600;7.558;2022-10-30T00:48:29;3.85;;;3.00;;
18947;SDS011;9607;51.600;7.558;2022-10-30T00:50:56;4.38;;;3.08;;
18947;SDS011;9607;51.600;7.558;2022-10-30T00:53:24;3.15;;;2.83;;
18947;SDS011;9607;51.600;7.558;2022-10-30T00:55:52;3.17;;;2.70;;
18947;SDS011;9607;51.600;7.558;2022-10-30T00:58:25;3.20;;;2.90;;
18947;SDS011;9607;51.600;7.558;2022-10-30T01:00:55;3.38;;;3.08;;
18947;SDS011;9607;51.600;7.558;2022-10-30T01:03:27;3.92;;;3.40;;
18947;SDS011;9607;51.600;7.558;2022-10-30T01:05:57;3.33;;;3.03;;
18947;SDS011;9607;51.600;7.558;2022-10-30T01:08:27;4.22;;;2.90;;
18947;SDS011;9607;51.600;7.558;2022-10-30T01:10:55;3.88;;;3.17;;
18947;SDS011;9607;51.600;7.558;2022-10-30T01:13:23;3.72;;;3.17;;
18947;SDS011;9607;51.600;7.558;2022-10-30T01:15:53;3.05;;;2.75;;
18947;SDS011;9607;51.600;7.558;2022-10-30T01:18:35;3.42;;;2.97;;
18947;SDS011;9607;51.600;7.558;2022-10-30T01:21:14;3.50;;;2.53;;
18947;SDS011;9607;51.600;7.558;2022-10-30T01:23:59;3.25;;;2.95;;
18947;SDS011;9607;51.600;7.558;2022-10-30T01:26:36;3.60;;;2.78;;
18947;SDS011;9607;51.600;7.558;2022-10-30T01:29:19;3.10;;;2.80;;
18947;SDS011;9607;51.600;7.558;2022-10-30T01:31:57;3.13;;;2.78;;
18947;SDS011;9607;51.600;7.558;2022-10-30T01:34:36;5.25;;;3.33;;
18947;SDS011;9607;51.600;7.558;2022-10-30T01:37:11;3.63;;;3.28;;
18947;SDS011;9607;51.600;7.558;2022-10-30T01:39:44;4.20;;;3.28;;
18947;SDS011;9607;51.600;7.558;2022-10-30T01:45:14;11.43;;;5.05;;
18947;SDS011;9607;51.600;7.558;2022-10-30T01:47:50;7.43;;;5.28;;
18947;SDS011;9607;51.600;7.558;2022-10-30T01:50:31;5.88;;;4.07;;
18947;SDS011;9607;51.600;7.558;2022-10-30T01:53:08;4.97;;;4.28;;
18947;SDS011;9607;51.600;7.558;2022-10-30T01:55:47;5.47;;;4.03;;
18947;SDS011;9607;51.600;7.558;2022-10-30T01:58:19;5.25;;;4.63;;
18947;SDS011;9607;51.600;7.558;2022-10-30T02:00:49;6.18;;;4.53;;
18947;SDS011;9607;51.600;7.558;2022-10-30T02:03:18;8.15;;;4.30;;
18947;SDS011;9607;51.600;7.558;2022-10-30T02:05:48;4.35;;;3.78;;
18947;SDS011;9607;51.600;7.558;2022-10-30T02:08:16;4.90;;;3.90;;
18947;SDS011;9607;51.600;7.558;2022-10-30T02:10:43;5.82;;;4.20;;
18947;SDS011;9607;51.600;7.558;2022-10-30T02:13:13;5.13;;;4.05;;
18947;SDS011;9607;51.600;7.558;2022-10-30T02:15:40;7.85;;;4.78;;
18947;SDS011;9607;51.600;7.558;2022-10-30T02:18:10;5.95;;;4.53;;
18947;SDS011;9607;51.600;7.558;2022-10-30T02:20:39;4.30;;;3.70;;
18947;SDS011;9607;51.600;7.558;2022-10-30T02:23:06;4.93;;;3.90;;
18947;SDS011;9607;51.600;7.558;2022-10-30T02:25:38;4.07;;;3.67;;
18947;SDS011;9607;51.600;7.558;2022-10-30T02:28:05;5.75;;;4.72;;
18947;SDS011;9607;51.600;7.558;2022-10-30T02:30:31;6.90;;;4.45;;
18947;SDS011;9607;51.600;7.558;2022-10-30T02:32:58;10.00;;;4.93;;
18947;SDS011;9607;51.600;7.558;2022-10-30T02:35:25;6.15;;;4.32;;
18947;SDS011;9607;51.600;7.558;2022-10-30T02:37:53;5.43;;;4.13;;
18947;SDS011;9607;51.600;7.558;2022-10-30T02:40:20;5.88;;;4.05;;
18947;SDS011;9607;51.600;7.558;2022-10-30T02:42:50;8.30;;;5.80;;
18947;SDS011;9607;51.600;7.558;2022-10-30T02:45:17;8.30;;;5.45;;
18947;SDS011;9607;51.600;7.558;2022-10-30T02:47:44;6.25;;;4.70;;
18947;SDS011;9607;51.600;7.558;2022-10-30T02:50:12;6.57;;;4.93;;
18947;SDS011;9607;51.600;7.558;2022-10-30T02:52:39;6.72;;;4.15;;
18947;SDS011;9607;51.600;7.558;2022-10-30T02:55:08;5.53;;;4.75;;
18947;SDS011;9607;51.600;7.558;2022-10-30T02:57:35;9.98;;;5.45;;
18947;SDS011;9607;51.600;7.558;2022-10-30T03:00:05;4.65;;;4.15;;
18947;SDS011;9607;51.600;7.558;2022-10-30T03:02:32;9.15;;;5.95;;
18947;SDS011;9607;51.600;7.558;2022-10-30T03:04:59;9.02;;;5.07;;
18947;SDS011;9607;51.600;7.558;2022-10-30T03:07:26;7.55;;;5.07;;
18947;SDS011;9607;51.600;7.558;2022-10-30T03:09:53;7.20;;;4.25;;
18947;SDS011;9607;51.600;7.558;2022-10-30T03:12:21;6.13;;;4.97;;
18947;SDS011;9607;51.600;7.558;2022-10-30T03:14:48;8.70;;;4.93;;
18947;SDS011;9607;51.600;7.558;2022-10-30T03:17:15;6.55;;;5.35;;
18947;SDS011;9607;51.600;7.558;2022-10-30T03:19:43;5.75;;;4.40;;
18947;SDS011;9607;51.600;7.558;2022-10-30T03:22:10;6.07;;;4.82;;
18947;SDS011;9607;51.600;7.558;2022-10-30T03:24:37;6.15;;;4.93;;
18947;SDS011;9607;51.600;7.558;2022-10-30T03:27:06;4.25;;;3.75;;
18947;SDS011;9607;51.600;7.558;2022-10-30T03:29:34;5.72;;;4.60;;
18947;SDS011;9607;51.600;7.558;2022-10-30T03:32:02;5.40;;;4.30;;
18947;SDS011;9607;51.600;7.558;2022-10-30T03:34:30;6.40;;;4.50;;
18947;SDS011;9607;51.600;7.558;2022-10-30T03:36:56;4.20;;;3.70;;
18947;SDS011;9607;51.600;7.558;2022-10-30T03:39:23;5.80;;;3.83;;
18947;SDS011;9607;51.600;7.558;2022-10-30T03:41:50;4.45;;;4.05;;
18947;SDS011;9607;51.600;7.558;2022-10-30T03:44:17;4.00;;;3.60;;
18947;SDS011;9607;51.600;7.558;2022-10-30T03:46:45;4.85;;;4.25;;
18947;SDS011;9607;51.600;7.558;2022-10-30T03:49:12;4.25;;;3.85;;
18947;SDS011;9607;51.600;7.558;2022-10-30T03:51:39;5.35;;;4.28;;
18947;SDS011;9607;51.600;7.558;2022-10-30T03:54:06;5.68;;;4.22;;
18947;SDS011;9607;51.600;7.558;2022-10-30T03:56:32;6.43;;;5.07;;
18947;SDS011;9607;51.600;7.558;2022-10-30T03:58:59;6.43;;;4.70;;
18947;SDS011;9607;51.600;7.558;2022-10-30T04:01:26;8.90;;;5.13;;
18947;SDS011;9607;51.600;7.558;2022-10-30T04:03:55;7.18;;;3.90;;
18947;SDS011;9607;51.600;7.558;2022-10-30T04:06:22;7.03;;;5.40;;
18947;SDS011;9607;51.600;7.558;2022-10-30T04:08:48;6.70;;;4.72;;
18947;SDS011;9607;51.600;7.558;2022-10-30T04:11:15;10.95;;;5.80;;
18947;SDS011;9607;51.600;7.558;2022-10-30T04:13:42;8.82;;;5.63;;
18947;SDS011;9607;51.600;7.558;2022-10-30T04:16:09;5.25;;;4.75;;
18947;SDS011;9607;51.600;7.558;2022-10-30T04:18:36;5.90;;;5.07;;
18947;SDS011;9607;51.600;7.558;2022-10-30T04:21:04;7.93;;;5.50;;
18947;SDS011;9607;51.600;7.558;2022-10-30T04:23:31;5.82;;;4.70;;
18947;SDS011;9607;51.600;7.558;2022-10-30T04:25:58;5.00;;;4.28;;
18947;SDS011;9607;51.600;7.558;2022-10-30T04:28:26;8.23;;;5.22;;
18947;SDS011;9607;51.600;7.558;2022-10-30T04:30:52;5.55;;;4.30;;
18947;SDS011;9607;51.600;7.558;2022-10-30T04:33:19;14.20;;;5.53;;
18947;SDS011;9607;51.600;7.558;2022-10-30T04:35:48;6.53;;;5.20;;
18947;SDS011;9607;51.600;7.558;2022-10-30T04:38:16;6.45;;;4.90;;
18947;SDS011;9607;51.600;7.558;2022-10-30T04:40:44;5.88;;;4.88;;
18947;SDS011;9607;51.600;7.558;2022-10-30T04:43:11;5.30;;;4.75;;
18947;SDS011;9607;51.600;7.558;2022-10-30T04:45:39;5.05;;;4.55;;
18947;SDS011;9607;51.600;7.558;2022-10-30T04:48:11;6.35;;;4.97;;
18947;SDS011;9607;51.600;7.558;2022-10-30T04:50:39;6.68;;;5.03;;
18947;SDS011;9607;51.600;7.558;2022-10-30T04:53:06;5.45;;;4.70;;
18947;SDS011;9607;51.600;7.558;2022-10-30T04:55:39;11.70;;;5.55;;
18947;SDS011;9607;51.600;7.558;2022-10-30T04:58:07;6.72;;;5.25;;
18947;SDS011;9607;51.600;7.558;2022-10-30T05:00:34;7.43;;;6.00;;
18947;SDS011;9607;51.600;7.558;2022-10-30T05:03:01;5.88;;;4.68;;
18947;SDS011;9607;51.600;7.558;2022-10-30T05:05:28;7.10;;;5.38;;
18947;SDS011;9607;51.600;7.558;2022-10-30T05:07:56;5.70;;;4.63;;
18947;SDS011;9607;51.600;7.558;2022-10-30T05:10:22;6.15;;;5.20;;
18947;SDS011;9607;51.600;7.558;2022-10-30T05:12:51;5.85;;;4.82;;
18947;SDS011;9607;51.600;7.558;2022-10-30T05:15:18;10.25;;;7.40;;
18947;SDS011;9607;51.600;7.558;2022-10-30T05:17:49;9.20;;;5.55;;
18947;SDS011;9607;51.600;7.558;2022-10-30T05:20:17;8.18;;;6.03;;
18947;SDS011;9607;51.600;7.558;2022-10-30T05:22:44;6.85;;;5.63;;
18947;SDS011;9607;51.600;7.558;2022-10-30T05:25:10;5.90;;;5.13;;
18947;SDS011;9607;51.600;7.558;2022-10-30T05:27:37;7.97;;;5.63;;
18947;SDS011;9607;51.600;7.558;2022-10-30T05:30:07;8.50;;;5.47;;
18947;SDS011;9607;51.600;7.558;2022-10-30T05:32:34;4.90;;;4.35;;
18947;SDS011;9607;51.600;7.558;2022-10-30T05:35:02;6.05;;;4.90;;
18947;SDS011;9607;51.600;7.558;2022-10-30T05:37:29;6.75;;;4.93;;
18947;SDS011;9607;51.600;7.558;2022-10-30T05:39:56;9.93;;;6.10;;
18947;SDS011;9607;51.600;7.558;2022-10-30T05:42:23;8.57;;;5.85;;
18947;SDS011;9607;51.600;7.558;2022-10-30T05:44:51;6.13;;;5.35;;
18947;SDS011;9607;51.600;7.558;2022-10-30T05:47:19;12.68;;;7.35;;
18947;SDS011;9607;51.600;7.558;2022-10-30T05:49:46;8.98;;;6.28;;
18947;SDS011;9607;51.600;7.558;2022-10-30T05:52:12;7.20;;;6.20;;
18947;SDS011;9607;51.600;7.558;2022-10-30T05:54:40;9.02;;;5.70;;
18947;SDS011;9607;51.600;7.558;2022-10-30T05:57:06;6.10;;;5.35;;
18947;SDS011;9607;51.600;7.558;2022-10-30T05:59:33;7.65;;;5.15;;
18947;SDS011;9607;51.600;7.558;2022-10-30T06:02:00;6.22;;;5.20;;
18947;SDS011;9607;51.600;7.558;2022-10-30T06:04:28;7.78;;;5.90;;
18947;SDS011;9607;51.600;7.558;2022-10-30T06:06:57;6.30;;;5.53;;
18947;SDS011;9607;51.600;7.558;2022-10-30T06:09:24;7.47;;;4.53;;
18947;SDS011;9607;51.600;7.558;2022-10-30T06:11:51;6.85;;;4.85;;
18947;SDS011;9607;51.600;7.558;2022-10-30T06:14:18;6.45;;;5.30;;
18947;SDS011;9607;51.600;7.558;2022-10-30T06:16:45;5.18;;;4.35;;
18947;SDS011;9607;51.600;7.558;2022-10-30T06:19:13;6.68;;;5.15;;
18947;SDS011;9607;51.600;7.558;2022-10-30T06:21:41;6.43;;;5.40;;
18947;SDS011;9607;51.600;7.558;2022-10-30T06:24:08;5.68;;;4.60;;
18947;SDS011;9607;51.600;7.558;2022-10-30T06:26:35;7.00;;;5.32;;
18947;SDS011;9607;51.600;7.558;2022-10-30T06:29:02;5.90;;;4.90;;
18947;SDS011;9607;51.600;7.558;2022-10-30T06:31:29;6.18;;;5.00;;
18947;SDS011;9607;51.600;7.558;2022-10-30T06:33:55;7.15;;;5.40;;
18947;SDS011;9607;51.600;7.558;2022-10-30T06:36:22;5.25;;;4.43;;
18947;SDS011;9607;51.600;7.558;2022-10-30T06:38:50;5.65;;;4.65;;
18947;SDS011;9607;51.600;7.558;2022-10-30T06:41:17;6.30;;;4.80;;
18947;SDS011;9607;51.600;7.558;2022-10-30T06:43:44;5.22;;;4.25;;
18947;SDS011;9607;51.600;7.558;2022-10-30T06:46:11;6.10;;;4.47;;
18947;SDS011;9607;51.600;7.558;2022-10-30T06:48:37;5.35;;;4.68;;
18947;SDS011;9607;51.600;7.558;2022-10-30T06:51:04;5.13;;;4.43;;
18947;SDS011;9607;51.600;7.558;2022-10-30T06:53:31;8.65;;;5.35;;
18947;SDS011;9607;51.600;7.558;2022-10-30T06:56:00;7.05;;;5.78;;
18947;SDS011;9607;51.600;7.558;2022-10-30T06:58:28;6.65;;;5.32;;
18947;SDS011;9607;51.600;7.558;2022-10-30T07:00:55;12.00;;;6.85;;
18947;SDS011;9607;51.600;7.558;2022-10-30T07:03:24;8.23;;;5.60;;
18947;SDS011;9607;51.600;7.558;2022-10-30T07:05:51;8.75;;;5.72;;
18947;SDS011;9607;51.600;7.558;2022-10-30T07:08:17;9.13;;;6.18;;
18947;SDS011;9607;51.600;7.558;2022-10-30T07:10:44;6.90;;;5.35;;
18947;SDS011;9607;51.600;7.558;2022-10-30T07:13:12;6.10;;;5.43;;
18947;SDS011;9607;51.600;7.558;2022-10-30T07:15:39;6.70;;;5.22;;
18947;SDS011;9607;51.600;7.558;2022-10-30T07:18:06;6.07;;;5.13;;
18947;SDS011;9607;51.600;7.558;2022-10-30T07:20:35;6.15;;;4.75;;
18947;SDS011;9607;51.600;7.558;2022-10-30T07:23:02;6.03;;;4.75;;
18947;SDS011;9607;51.600;7.558;2022-10-30T07:25:29;4.80;;;4.30;;
18947;SDS011;9607;51.600;7.558;2022-10-30T07:27:56;6.35;;;4.78;;
18947;SDS011;9607;51.600;7.558;2022-10-30T07:30:24;8.20;;;6.45;;
18947;SDS011;9607;51.600;7.558;2022-10-30T07:32:55;6.20;;;5.43;;
18947;SDS011;9607;51.600;7.558;2022-10-30T07:35:23;6.88;;;5.47;;
18947;SDS011;9607;51.600;7.558;2022-10-30T07:37:49;8.52;;;5.30;;
18947;SDS011;9607;51.600;7.558;2022-10-30T07:40:16;6.55;;;5.55;;
18947;SDS011;9607;51.600;7.558;2022-10-30T07:42:43;5.60;;;4.97;;
18947;SDS011;9607;51.600;7.558;2022-10-30T07:45:10;4.70;;;4.20;;
18947;SDS011;9607;51.600;7.558;2022-10-30T07:47:39;4.78;;;4.32;;
18947;SDS011;9607;51.600;7.558;2022-10-30T07:50:06;6.10;;;4.75;;
18947;SDS011;9607;51.600;7.558;2022-10-30T07:52:34;6.28;;;4.68;;
18947;SDS011;9607;51.600;7.558;2022-10-30T07:55:01;5.35;;;4.47;;
18947;SDS011;9607;51.600;7.558;2022-10-30T07:57:29;4.93;;;4.43;;
18947;SDS011;9607;51.600;7.558;2022-10-30T07:59:59;5.35;;;4.60;;
18947;SDS011;9607;51.600;7.558;2022-10-30T08:02:26;4.97;;;4.47;;
18947;SDS011;9607;51.600;7.558;2022-10-30T08:04:54;5.38;;;3.92;;
18947;SDS011;9607;51.600;7.558;2022-10-30T08:07:21;4.32;;;3.92;;
18947;SDS011;9607;51.600;7.558;2022-10-30T08:09:48;4.43;;;4.03;;
18947;SDS011;9607;51.600;7.558;2022-10-30T08:12:14;6.20;;;4.90;;
18947;SDS011;9607;51.600;7.558;2022-10-30T08:14:41;5.05;;;4.10;;
18947;SDS011;9607;51.600;7.558;2022-10-30T08:17:08;4.60;;;4.20;;
18947;SDS011;9607;51.600;7.558;2022-10-30T08:19:35;4.40;;;3.65;;
18947;SDS011;9607;51.600;7.558;2022-10-30T08:22:03;5.60;;;4.10;;
18947;SDS011;9607;51.600;7.558;2022-10-30T08:24:30;5.88;;;4.53;;
18947;SDS011;9607;51.600;7.558;2022-10-30T08:26:56;4.80;;;4.22;;
18947;SDS011;9607;51.600;7.558;2022-10-30T08:29:33;4.85;;;3.92;;
18947;SDS011;9607;51.600;7.558;2022-10-30T08:32:00;4.95;;;4.40;;
18947;SDS011;9607;51.600;7.558;2022-10-30T08:34:27;4.28;;;3.72;;
18947;SDS011;9607;51.600;7.558;2022-10-30T08:36:56;5.00;;;4.07;;
18947;SDS011;9607;51.600;7.558;2022-10-30T08:39:25;5.07;;;3.75;;
18947;SDS011;9607;51.600;7.558;2022-10-30T08:41:52;3.80;;;3.50;;
18947;SDS011;9607;51.600;7.558;2022-10-30T08:44:18;4.78;;;3.70;;
18947;SDS011;9607;51.600;7.558;2022-10-30T08:46:46;5.13;;;3.50;;
18947;SDS011;9607;51.600;7.558;2022-10-30T08:49:12;4.07;;;3.35;;
18947;SDS011;9607;51.600;7.558;2022-10-30T08:51:39;3.97;;;3.35;;
18947;SDS011;9607;51.600;7.558;2022-10-30T08:54:07;4.00;;;3.50;;
18947;SDS011;9607;51.600;7.558;2022-10-30T08:56:35;6.43;;;4.45;;
18947;SDS011;9607;51.600;7.558;2022-10-30T08:59:02;5.03;;;4.07;;
18947;SDS011;9607;51.600;7.558;2022-10-30T09:01:29;3.90;;;3.38;;
18947;SDS011;9607;51.600;7.558;2022-10-30T09:03:55;3.42;;;3.13;;
18947;SDS011;9607;51.600;7.558;2022-10-30T09:06:22;4.78;;;3.63;;
18947;SDS011;9607;51.600;7.558;2022-10-30T09:08:49;3.63;;;3.25;;
18947;SDS011;9607;51.600;7.558;2022-10-30T09:11:15;3.90;;;3.42;;
18947;SDS011;9607;51.600;7.558;2022-10-30T09:13:44;3.58;;;2.60;;
18947;SDS011;9607;51.600;7.558;2022-10-30T09:16:11;3.30;;;3.00;;
18947;SDS011;9607;51.600;7.558;2022-10-30T09:18:38;3.83;;;2.88;;
18947;SDS011;9607;51.600;7.558;2022-10-30T09:21:04;4.95;;;3.00;;
18947;SDS011;9607;51.600;7.558;2022-10-30T09:23:31;2.95;;;2.65;;
18947;SDS011;9607;51.600;7.558;2022-10-30T09:25:58;2.90;;;2.70;;
18947;SDS011;9607;51.600;7.558;2022-10-30T09:28:25;2.70;;;2.50;;
18947;SDS011;9607;51.600;7.558;2022-10-30T09:30:55;2.75;;;2.50;;
18947;SDS011;9607;51.600;7.558;2022-10-30T09:33:22;2.45;;;2.25;;
18947;SDS011;9607;51.600;7.558;2022-10-30T09:35:48;2.70;;;2.50;;
18947;SDS011;9607;51.600;7.558;2022-10-30T09:38:15;3.28;;;2.80;;
18947;SDS011;9607;51.600;7.558;2022-10-30T09:40:45;2.47;;;2.22;;
18947;SDS011;9607;51.600;7.558;2022-10-30T09:46:00;3.42;;;2.70;;
18947;SDS011;9607;51.600;7.558;2022-10-30T09:48:45;3.20;;;2.90;;
18947;SDS011;9607;51.600;7.558;2022-10-30T09:51:24;2.70;;;2.30;;
18947;SDS011;9607;51.600;7.558;2022-10-30T09:54:10;3.92;;;2.55;;
18947;SDS011;9607;51.600;7.558;2022-10-30T09:56:43;2.38;;;2.17;;
18947;SDS011;9607;51.600;7.558;2022-10-30T09:59:16;4.63;;;2.55;;
18947;SDS011;9607;51.600;7.558;2022-10-30T10:01:54;3.42;;;2.20;;
18947;SDS011;9607;51.600;7.558;2022-10-30T10:04:27;8.77;;;4.38;;
18947;SDS011;9607;51.600;7.558;2022-10-30T10:07:01;7.93;;;4.63;;
18947;SDS011;9607;51.600;7.558;2022-10-30T10:09:42;7.03;;;4.38;;
18947;SDS011;9607;51.600;7.558;2022-10-30T10:12:10;11.32;;;6.97;;
18947;SDS011;9607;51.600;7.558;2022-10-30T10:14:44;18.70;;;7.97;;
18947;SDS011;9607;51.600;7.558;2022-10-30T10:17:14;21.38;;;9.07;;
18947;SDS011;9607;51.600;7.558;2022-10-30T10:19:51;14.68;;;7.78;;
18947;SDS011;9607;51.600;7.558;2022-10-30T10:22:24;17.35;;;7.68;;
18947;SDS011;9607;51.600;7.558;2022-10-30T10:24:56;16.70;;;8.40;;
18947;SDS011;9607;51.600;7.558;2022-10-30T10:27:26;13.30;;;7.13;;
18947;SDS011;9607;51.600;7.558;2022-10-30T10:30:07;10.45;;;6.15;;
18947;SDS011;9607;51.600;7.558;2022-10-30T10:32:43;8.20;;;6.13;;
18947;SDS011;9607;51.600;7.558;2022-10-30T10:35:46;6.85;;;5.25;;
18947;SDS011;9607;51.600;7.558;2022-10-30T10:38:25;7.57;;;5.85;;
18947;SDS011;9607;51.600;7.558;2022-10-30T10:41:02;7.57;;;5.00;;
18947;SDS011;9607;51.600;7.558;2022-10-30T10:43:37;8.02;;;5.20;;
18947;SDS011;9607;51.600;7.558;2022-10-30T10:46:19;5.95;;;5.28;;
18947;SDS011;9607;51.600;7.558;2022-10-30T10:49:05;5.95;;;4.57;;
18947;SDS011;9607;51.600;7.558;2022-10-30T10:51:41;4.80;;;3.88;;
18947;SDS011;9607;51.600;7.558;2022-10-30T10:54:15;4.13;;;3.72;;
18947;SDS011;9607;51.600;7.558;2022-10-30T10:56:45;3.55;;;3.25;;
18947;SDS011;9607;51.600;7.558;2022-10-30T10:59:15;4.03;;;3.40;;
18947;SDS011;9607;51.600;7.558;2022-10-30T11:01:48;3.95;;;3.55;;
18947;SDS011;9607;51.600;7.558;2022-10-30T11:04:26;3.40;;;3.10;;
18947;SDS011;9607;51.600;7.558;2022-10-30T11:06:56;3.38;;;3.08;;
18947;SDS011;9607;51.600;7.558;2022-10-30T11:09:25;3.08;;;2.83;;
18947;SDS011;9607;51.600;7.558;2022-10-30T11:11:53;3.33;;;3.03;;
18947;SDS011;9607;51.600;7.558;2022-10-30T11:14:21;2.97;;;2.67;;
18947;SDS011;9607;51.600;7.558;2022-10-30T11:16:50;3.17;;;2.88;;
18947;SDS011;9607;51.600;7.558;2022-10-30T11:19:28;3.67;;;2.97;;
18947;SDS011;9607;51.600;7.558;2022-10-30T11:21:56;3.22;;;2.72;;
18947;SDS011;9607;51.600;7.558;2022-10-30T11:24:28;4.03;;;2.53;;
18947;SDS011;9607;51.600;7.558;2022-10-30T11:26:56;2.30;;;2.10;;
18947;SDS011;9607;51.600;7.558;2022-10-30T11:29:24;3.88;;;2.60;;
18947;SDS011;9607;51.600;7.558;2022-10-30T11:31:57;5.15;;;2.95;;
18947;SDS011;9607;51.600;7.558;2022-10-30T11:34:31;3.65;;;2.85;;
18947;SDS011;9607;51.600;7.558;2022-10-30T11:36:59;3.33;;;2.28;;
18947;SDS011;9607;51.600;7.558;2022-10-30T11:39:27;3.70;;;2.60;;
18947;SDS011;9607;51.600;7.558;2022-10-30T11:42:00;21.50;;;5.78;;
18947;SDS011;9607;51.600;7.558;2022-10-30T11:44:33;25.90;;;6.70;;
18947;SDS011;9607;51.600;7.558;2022-10-30T11:47:03;12.25;;;5.30;;
18947;SDS011;9607;51.600;7.558;2022-10-30T11:49:34;8.18;;;4.57;;
18947;SDS011;9607;51.600;7.558;2022-10-30T11:52:06;7.25;;;4.78;;
18947;SDS011;9607;51.600;7.558;2022-10-30T11:54:35;8.82;;;4.72;;
18947;SDS011;9607;51.600;7.558;2022-10-30T11:57:10;8.95;;;4.65;;
18947;SDS011;9607;51.600;7.558;2022-10-30T11:59:46;4.75;;;3.50;;
18947;SDS011;9607;51.600;7.558;2022-10-30T12:02:19;4.97;;;3.05;;
18947;SDS011;9607;51.600;7.558;2022-10-30T12:04:52;3.90;;;2.55;;
18947;SDS011;9607;51.600;7.558;2022-10-30T12:07:23;3.45;;;2.78;;
18947;SDS011;9607;51.600;7.558;2022-10-30T12:09:53;4.93;;;2.78;;
18947;SDS011;9607;51.600;7.558;2022-10-30T12:12:22;2.83;;;1.90;;
18947;SDS011;9607;51.600;7.558;2022-10-30T12:14:53;3.45;;;2.38;;
18947;SDS011;9607;51.600;7.558;2022-10-30T12:17:20;3.35;;;1.90;;
18947;SDS011;9607;51.600;7.558;2022-10-30T12:19:49;2.35;;;2.03;;
18947;SDS011;9607;51.600;7.558;2022-10-30T12:22:23;2.85;;;2.03;;
18947;SDS011;9607;51.600;7.558;2022-10-30T12:24:52;3.15;;;1.80;;
18947;SDS011;9607;51.600;7.558;2022-10-30T12:27:23;2.25;;;1.83;;
18947;SDS011;9607;51.600;7.558;2022-10-30T12:29:57;4.18;;;2.10;;
18947;SDS011;9607;51.600;7.558;2022-10-30T12:32:31;2.60;;;1.90;;
18947;SDS011;9607;51.600;7.558;2022-10-30T12:35:04;2.35;;;1.85;;
18947;SDS011;9607;51.600;7.558;2022-10-30T12:37:40;2.35;;;1.98;;
18947;SDS011;9607;51.600;7.558;2022-10-30T12:40:10;2.80;;;1.67;;
18947;SDS011;9607;51.600;7.558;2022-10-30T12:42:43;2.30;;;1.90;;
18947;SDS011;9607;51.600;7.558;2022-10-30T12:45:15;2.13;;;1.80;;
18947;SDS011;9607;51.600;7.558;2022-10-30T12:47:48;2.15;;;1.65;;
18947;SDS011;9607;51.600;7.558;2022-10-30T12:50:21;2.97;;;2.05;;
18947;SDS011;9607;51.600;7.558;2022-10-30T12:52:54;2.03;;;1.63;;
18947;SDS011;9607;51.600;7.558;2022-10-30T12:55:26;4.72;;;2.00;;
18947;SDS011;9607;51.600;7.558;2022-10-30T12:58:01;2.15;;;1.60;;
18947;SDS011;9607;51.600;7.558;2022-10-30T13:00:35;4.88;;;2.10;;
18947;SDS011;9607;51.600;7.558;2022-10-30T13:03:13;4.30;;;1.60;;
18947;SDS011;9607;51.600;7.558;2022-10-30T13:05:52;5.38;;;2.20;;
18947;SDS011;9607;51.600;7.558;2022-10-30T13:08:22;3.50;;;2.25;;
18947;SDS011;9607;51.600;7.558;2022-10-30T13:10:55;6.93;;;2.83;;
18947;SDS011;9607;51.600;7.558;2022-10-30T13:13:29;5.15;;;2.70;;
18947;SDS011;9607;51.600;7.558;2022-10-30T13:15:59;7.70;;;3.03;;
18947;SDS011;9607;51.600;7.558;2022-10-30T13:18:31;11.70;;;3.20;;
18947;SDS011;9607;51.600;7.558;2022-10-30T13:21:03;7.40;;;2.65;;
18947;SDS011;9607;51.600;7.558;2022-10-30T13:23:47;4.78;;;2.20;;
18947;SDS011;9607;51.600;7.558;2022-10-30T13:26:21;4.38;;;2.17;;
18947;SDS011;9607;51.600;7.558;2022-10-30T13:28:57;4.80;;;2.58;;
18947;SDS011;9607;51.600;7.558;2022-10-30T13:31:32;4.10;;;2.65;;
18947;SDS011;9607;51.600;7.558;2022-10-30T13:34:05;2.92;;;2.08;;
18947;SDS011;9607;51.600;7.558;2022-10-30T13:36:51;5.97;;;2.47;;
18947;SDS011;9607;51.600;7.558;2022-10-30T13:39:25;3.70;;;2.00;;
18947;SDS011;9607;51.600;7.558;2022-10-30T13:42:02;3.25;;;1.98;;
18947;SDS011;9607;51.600;7.558;2022-10-30T13:44:45;4.38;;;2.10;;
18947;SDS011;9607;51.600;7.558;2022-10-30T13:47:23;7.57;;;2.75;;
18947;SDS011;9607;51.600;7.558;2022-10-30T13:50:04;3.70;;;2.50;;
18947;SDS011;9607;51.600;7.558;2022-10-30T13:52:47;4.45;;;2.13;;
18947;SDS011;9607;51.600;7.558;2022-10-30T13:55:18;7.95;;;3.03;;
18947;SDS011;9607;51.600;7.558;2022-10-30T13:57:52;6.38;;;2.60;;
18947;SDS011;9607;51.600;7.558;2022-10-30T14:00:26;6.75;;;3.55;;
18947;SDS011;9607;51.600;7.558;2022-10-30T14:03:10;6.50;;;2.53;;
18947;SDS011;9607;51.600;7.558;2022-10-30T14:05:45;5.82;;;2.40;;
18947;SDS011;9607;51.600;7.558;2022-10-30T14:08:19;3.85;;;2.35;;
18947;SDS011;9607;51.600;7.558;2022-10-30T14:10:56;6.43;;;2.45;;
18947;SDS011;9607;51.600;7.558;2022-10-30T14:13:24;5.65;;;2.75;;
18947;SDS011;9607;51.600;7.558;2022-10-30T14:15:53;5.82;;;2.53;;
18947;SDS011;9607;51.600;7.558;2022-10-30T14:18:25;3.28;;;2.40;;
18947;SDS011;9607;51.600;7.558;2022-10-30T14:20:54;4.60;;;2.50;;
18947;SDS011;9607;51.600;7.558;2022-10-30T14:23:24;11.15;;;3.25;;
18947;SDS011;9607;51.600;7.558;2022-10-30T14:28:46;4.15;;;2.42;;
18947;SDS011;9607;51.600;7.558;2022-10-30T14:31:16;7.38;;;3.03;;
18947;SDS011;9607;51.600;7.558;2022-10-30T14:33:45;4.05;;;2.88;;
18947;SDS011;9607;51.600;7.558;2022-10-30T14:36:15;7.50;;;2.97;;
18947;SDS011;9607;51.600;7.558;2022-10-30T14:38:52;9.38;;;3.25;;
18947;SDS011;9607;51.600;7.558;2022-10-30T14:41:30;7.60;;;3.47;;
18947;SDS011;9607;51.600;7.558;2022-10-30T14:50:16;3.17;;;2.20;;
18947;SDS011;9607;51.600;7.558;2022-10-30T14:52:51;4.13;;;2.22;;
18947;SDS011;9607;51.600;7.558;2022-10-30T14:55:32;5.65;;;3.30;;
18947;SDS011;9607;51.600;7.558;2022-10-30T14:58:20;3.42;;;2.30;;
18947;SDS011;9607;51.600;7.558;2022-10-30T15:00:51;3.00;;;2.30;;
18947;SDS011;9607;51.600;7.558;2022-10-30T15:03:38;3.53;;;2.58;;
18947;SDS011;9607;51.600;7.558;2022-10-30T15:06:17;3.95;;;2.72;;
18947;SDS011;9607;51.600;7.558;2022-10-30T15:08:58;4.38;;;2.20;;
18947;SDS011;9607;51.600;7.558;2022-10-30T15:11:36;2.50;;;2.00;;
18947;SDS011;9607;51.600;7.558;2022-10-30T15:14:16;2.88;;;2.10;;
18947;SDS011;9607;51.600;7.558;2022-10-30T15:16:50;3.30;;;2.13;;
18947;SDS011;9607;51.600;7.558;2022-10-30T15:19:17;3.55;;;1.65;;
18947;SDS011;9607;51.600;7.558;2022-10-30T15:21:48;2.20;;;1.80;;
18947;SDS011;9607;51.600;7.558;2022-10-30T15:24:18;4.25;;;2.22;;
18947;SDS011;9607;51.600;7.558;2022-10-30T15:26:48;2.13;;;1.70;;
18947;SDS011;9607;51.600;7.558;2022-10-30T15:29:18;3.55;;;2.08;;
18947;SDS011;9607;51.600;7.558;2022-10-30T15:31:55;3.50;;;2.13;;
18947;SDS011;9607;51.600;7.558;2022-10-30T15:34:23;2.70;;;2.05;;